sensor_id;sensor_type;location;lat;lon;timestamp;P1;durP1;ratioP1;P2;durP2;ratioP2
23206;SDS011;11773;52.570;13.052;2023-07-31T00:01:33;0.30;;;0.30;;
23206;SDS011;11773;52.570;13.052;2023-07-31T00:04:02;0.30;;;0.30;;
23206;SDS011;11773;52.570;13.052;2023-07-31T00:06:32;0.77;;;0.30;;
23206;SDS011;11773;52.570;13.052;2023-07-31T00:09:02;0.30;;;0.30;;
23206;SDS011;11773;52.570;13.052;2023-07-31T00:11:31;0.20;;;0.20;;
23206;SDS011;11773;52.570;13.052;2023-07-31T00:14:01;0.30;;;0.30;;
23206;SDS011;11773;52.570;13.052;2023-07-31T00:16:30;0.50;;;0.50;;
23206;SDS011;11773;52.570;13.052;2023-07-31T00:19:00;0.40;;;0.40;;
23206;SDS011;11773;52.570;13.052;2023-07-31T00:21:30;0.43;;;0.43;;
23206;SDS011;11773;52.570;13.052;2023-07-31T00:23:59;0.20;;;0.20;;
23206;SDS011;11773;52.570;13.052;2023-07-31T00:26:29;0.30;;;0.30;;
23206;SDS011;11773;52.570;13.052;2023-07-31T00:28:58;0.40;;;0.30;;
23206;SDS011;11773;52.570;13.052;2023-07-31T00:31:28;0.43;;;0.30;;
23206;SDS011;11773;52.570;13.052;2023-07-31T00:33:58;0.20;;;0.20;;
23206;SDS011;11773;52.570;13.052;2023-07-31T00:36:27;0.30;;;0.30;;
23206;SDS011;11773;52.570;13.052;2023-07-31T00:38:57;0.30;;;0.30;;
23206;SDS011;11773;52.570;13.052;2023-07-31T00:41:26;0.33;;;0.33;;
23206;SDS011;11773;52.570;13.052;2023-07-31T00:43:56;0.20;;;0.20;;
23206;SDS011;11773;52.570;13.052;2023-07-31T00:46:26;0.27;;;0.27;;
23206;SDS011;11773;52.570;13.052;2023-07-31T00:48:55;0.20;;;0.20;;
23206;SDS011;11773;52.570;13.052;2023-07-31T00:51:25;0.40;;;0.37;;
23206;SDS011;11773;52.570;13.052;2023-07-31T00:53:55;0.57;;;0.30;;
23206;SDS011;11773;52.570;13.052;2023-07-31T00:56:25;0.20;;;0.20;;
23206;SDS011;11773;52.570;13.052;2023-07-31T00:58:56;0.30;;;0.30;;
23206;SDS011;11773;52.570;13.052;2023-07-31T01:01:27;0.30;;;0.30;;
23206;SDS011;11773;52.570;13.052;2023-07-31T01:03:56;0.60;;;0.40;;
23206;SDS011;11773;52.570;13.052;2023-07-31T01:06:36;0.40;;;0.40;;
23206;SDS011;11773;52.570;13.052;2023-07-31T01:12:12;0.20;;;0.20;;
23206;SDS011;11773;52.570;13.052;2023-07-31T01:14:51;1.10;;;0.30;;
23206;SDS011;11773;52.570;13.052;2023-07-31T01:17:33;0.30;;;0.30;;
23206;SDS011;11773;52.570;13.052;2023-07-31T01:20:03;0.40;;;0.40;;
23206;SDS011;11773;52.570;13.052;2023-07-31T01:26:00;0.57;;;0.40;;
23206;SDS011;11773;52.570;13.052;2023-07-31T01:31:24;0.13;;;0.13;;
23206;SDS011;11773;52.570;13.052;2023-07-31T01:33:58;0.37;;;0.27;;
23206;SDS011;11773;52.570;13.052;2023-07-31T01:36:31;0.30;;;0.30;;
23206;SDS011;11773;52.570;13.052;2023-07-31T01:39:01;0.23;;;0.23;;
23206;SDS011;11773;52.570;13.052;2023-07-31T01:41:31;0.30;;;0.30;;
23206;SDS011;11773;52.570;13.052;2023-07-31T01:44:00;0.30;;;0.30;;
23206;SDS011;11773;52.570;13.052;2023-07-31T01:46:30;0.50;;;0.40;;
23206;SDS011;11773;52.570;13.052;2023-07-31T01:49:00;0.30;;;0.30;;
23206;SDS011;11773;52.570;13.052;2023-07-31T01:51:29;0.40;;;0.40;;
23206;SDS011;11773;52.570;13.052;2023-07-31T01:54:01;0.30;;;0.30;;
23206;SDS011;11773;52.570;13.052;2023-07-31T01:56:32;0.20;;;0.20;;
23206;SDS011;11773;52.570;13.052;2023-07-31T01:59:01;0.30;;;0.30;;
23206;SDS011;11773;52.570;13.052;2023-07-31T02:01:31;0.67;;;0.30;;
23206;SDS011;11773;52.570;13.052;2023-07-31T02:04:00;0.30;;;0.20;;
23206;SDS011;11773;52.570;13.052;2023-07-31T02:06:32;0.40;;;0.40;;
23206;SDS011;11773;52.570;13.052;2023-07-31T02:09:01;0.47;;;0.40;;
23206;SDS011;11773;52.570;13.052;2023-07-31T02:11:31;0.20;;;0.20;;
23206;SDS011;11773;52.570;13.052;2023-07-31T02:14:00;0.30;;;0.30;;
23206;SDS011;11773;52.570;13.052;2023-07-31T02:16:30;0.27;;;0.27;;
23206;SDS011;11773;52.570;13.052;2023-07-31T02:18:59;0.80;;;0.30;;
23206;SDS011;11773;52.570;13.052;2023-07-31T02:21:29;0.30;;;0.30;;
23206;SDS011;11773;52.570;13.052;2023-07-31T02:23:59;0.33;;;0.33;;
23206;SDS011;11773;52.570;13.052;2023-07-31T02:26:28;0.30;;;0.30;;
23206;SDS011;11773;52.570;13.052;2023-07-31T02:28:58;0.30;;;0.30;;
23206;SDS011;11773;52.570;13.052;2023-07-31T02:31:27;1.80;;;0.30;;
23206;SDS011;11773;52.570;13.052;2023-07-31T02:33:57;0.23;;;0.23;;
23206;SDS011;11773;52.570;13.052;2023-07-31T02:36:27;0.30;;;0.30;;
23206;SDS011;11773;52.570;13.052;2023-07-31T02:38:56;0.40;;;0.40;;
23206;SDS011;11773;52.570;13.052;2023-07-31T02:41:26;1.23;;;0.47;;
23206;SDS011;11773;52.570;13.052;2023-07-31T02:43:55;0.30;;;0.30;;
23206;SDS011;11773;52.570;13.052;2023-07-31T02:46:25;0.40;;;0.40;;
23206;SDS011;11773;52.570;13.052;2023-07-31T02:48:55;0.30;;;0.30;;
23206;SDS011;11773;52.570;13.052;2023-07-31T02:51:24;0.30;;;0.30;;
23206;SDS011;11773;52.570;13.052;2023-07-31T02:53:54;0.40;;;0.33;;
23206;SDS011;11773;52.570;13.052;2023-07-31T02:56:23;0.30;;;0.30;;
23206;SDS011;11773;52.570;13.052;2023-07-31T02:58:53;0.30;;;0.30;;
23206;SDS011;11773;52.570;13.052;2023-07-31T03:01:22;0.10;;;0.10;;
23206;SDS011;11773;52.570;13.052;2023-07-31T03:03:52;0.20;;;0.20;;
23206;SDS011;11773;52.570;13.052;2023-07-31T03:06:21;0.30;;;0.30;;
23206;SDS011;11773;52.570;13.052;2023-07-31T03:08:51;0.20;;;0.20;;
23206;SDS011;11773;52.570;13.052;2023-07-31T03:11:21;0.60;;;0.20;;
23206;SDS011;11773;52.570;13.052;2023-07-31T03:13:50;0.20;;;0.20;;
23206;SDS011;11773;52.570;13.052;2023-07-31T03:16:21;0.40;;;0.30;;
23206;SDS011;11773;52.570;13.052;2023-07-31T03:18:51;0.40;;;0.40;;
23206;SDS011;11773;52.570;13.052;2023-07-31T03:21:21;0.40;;;0.40;;
23206;SDS011;11773;52.570;13.052;2023-07-31T03:23:51;0.20;;;0.20;;
23206;SDS011;11773;52.570;13.052;2023-07-31T03:26:20;0.43;;;0.43;;
23206;SDS011;11773;52.570;13.052;2023-07-31T03:28:50;0.57;;;0.57;;
23206;SDS011;11773;52.570;13.052;2023-07-31T03:31:20;0.43;;;0.33;;
23206;SDS011;11773;52.570;13.052;2023-07-31T03:33:49;0.50;;;0.50;;
23206;SDS011;11773;52.570;13.052;2023-07-31T03:36:19;0.40;;;0.40;;
23206;SDS011;11773;52.570;13.052;2023-07-31T03:38:48;0.40;;;0.40;;
23206;SDS011;11773;52.570;13.052;2023-07-31T03:41:19;0.30;;;0.30;;
23206;SDS011;11773;52.570;13.052;2023-07-31T03:43:49;0.43;;;0.43;;
23206;SDS011;11773;52.570;13.052;2023-07-31T03:46:20;0.43;;;0.30;;
23206;SDS011;11773;52.570;13.052;2023-07-31T03:48:50;0.87;;;0.50;;
23206;SDS011;11773;52.570;13.052;2023-07-31T03:51:19;0.40;;;0.40;;
23206;SDS011;11773;52.570;13.052;2023-07-31T03:53:49;0.30;;;0.30;;
23206;SDS011;11773;52.570;13.052;2023-07-31T03:56:18;0.50;;;0.50;;
23206;SDS011;11773;52.570;13.052;2023-07-31T03:58:48;0.43;;;0.43;;
23206;SDS011;11773;52.570;13.052;2023-07-31T04:01:18;0.30;;;0.30;;
23206;SDS011;11773;52.570;13.052;2023-07-31T04:03:48;0.50;;;0.50;;
23206;SDS011;11773;52.570;13.052;2023-07-31T04:06:17;0.50;;;0.50;;
23206;SDS011;11773;52.570;13.052;2023-07-31T04:08:47;0.50;;;0.50;;
23206;SDS011;11773;52.570;13.052;2023-07-31T04:11:16;0.20;;;0.20;;
23206;SDS011;11773;52.570;13.052;2023-07-31T04:13:46;0.57;;;0.40;;
23206;SDS011;11773;52.570;13.052;2023-07-31T04:16:15;0.50;;;0.50;;
23206;SDS011;11773;52.570;13.052;2023-07-31T04:18:45;0.40;;;0.40;;
23206;SDS011;11773;52.570;13.052;2023-07-31T04:21:15;0.47;;;0.47;;
23206;SDS011;11773;52.570;13.052;2023-07-31T04:23:44;0.40;;;0.40;;
23206;SDS011;11773;52.570;13.052;2023-07-31T04:26:14;0.40;;;0.40;;
23206;SDS011;11773;52.570;13.052;2023-07-31T04:28:43;0.70;;;0.70;;
23206;SDS011;11773;52.570;13.052;2023-07-31T04:31:13;0.40;;;0.40;;
23206;SDS011;11773;52.570;13.052;2023-07-31T04:33:43;0.50;;;0.50;;
23206;SDS011;11773;52.570;13.052;2023-07-31T04:36:12;0.40;;;0.40;;
23206;SDS011;11773;52.570;13.052;2023-07-31T04:38:42;0.40;;;0.40;;
23206;SDS011;11773;52.570;13.052;2023-07-31T04:41:11;0.40;;;0.40;;
23206;SDS011;11773;52.570;13.052;2023-07-31T04:43:41;0.47;;;0.37;;
23206;SDS011;11773;52.570;13.052;2023-07-31T04:46:11;0.40;;;0.40;;
23206;SDS011;11773;52.570;13.052;2023-07-31T04:48:41;0.40;;;0.40;;
23206;SDS011;11773;52.570;13.052;2023-07-31T04:51:11;0.60;;;0.40;;
23206;SDS011;11773;52.570;13.052;2023-07-31T04:53:40;0.50;;;0.50;;
23206;SDS011;11773;52.570;13.052;2023-07-31T04:56:10;0.70;;;0.70;;
23206;SDS011;11773;52.570;13.052;2023-07-31T04:58:40;0.50;;;0.50;;
23206;SDS011;11773;52.570;13.052;2023-07-31T05:01:10;0.60;;;0.33;;
23206;SDS011;11773;52.570;13.052;2023-07-31T05:03:40;0.73;;;0.40;;
23206;SDS011;11773;52.570;13.052;2023-07-31T05:06:09;0.40;;;0.40;;
23206;SDS011;11773;52.570;13.052;2023-07-31T05:08:40;0.30;;;0.30;;
23206;SDS011;11773;52.570;13.052;2023-07-31T05:11:10;0.50;;;0.50;;
23206;SDS011;11773;52.570;13.052;2023-07-31T05:13:39;0.40;;;0.40;;
23206;SDS011;11773;52.570;13.052;2023-07-31T05:16:09;0.30;;;0.30;;
23206;SDS011;11773;52.570;13.052;2023-07-31T05:18:39;0.50;;;0.50;;
23206;SDS011;11773;52.570;13.052;2023-07-31T05:21:08;0.67;;;0.67;;
23206;SDS011;11773;52.570;13.052;2023-07-31T05:23:38;0.50;;;0.50;;
23206;SDS011;11773;52.570;13.052;2023-07-31T05:26:07;0.73;;;0.57;;
23206;SDS011;11773;52.570;13.052;2023-07-31T05:28:37;0.40;;;0.40;;
23206;SDS011;11773;52.570;13.052;2023-07-31T05:31:07;0.53;;;0.53;;
23206;SDS011;11773;52.570;13.052;2023-07-31T05:33:36;1.10;;;0.40;;
23206;SDS011;11773;52.570;13.052;2023-07-31T05:36:06;0.50;;;0.47;;
23206;SDS011;11773;52.570;13.052;2023-07-31T05:38:36;0.43;;;0.43;;
23206;SDS011;11773;52.570;13.052;2023-07-31T05:41:07;0.83;;;0.57;;
23206;SDS011;11773;52.570;13.052;2023-07-31T05:43:37;0.30;;;0.30;;
23206;SDS011;11773;52.570;13.052;2023-07-31T05:46:09;0.57;;;0.53;;
23206;SDS011;11773;52.570;13.052;2023-07-31T05:48:39;0.50;;;0.50;;
23206;SDS011;11773;52.570;13.052;2023-07-31T05:51:09;0.50;;;0.50;;
23206;SDS011;11773;52.570;13.052;2023-07-31T05:53:38;0.70;;;0.70;;
23206;SDS011;11773;52.570;13.052;2023-07-31T05:56:08;0.43;;;0.43;;
23206;SDS011;11773;52.570;13.052;2023-07-31T05:58:38;0.70;;;0.50;;
23206;SDS011;11773;52.570;13.052;2023-07-31T06:01:07;0.50;;;0.50;;
23206;SDS011;11773;52.570;13.052;2023-07-31T06:03:37;0.70;;;0.70;;
23206;SDS011;11773;52.570;13.052;2023-07-31T06:06:07;0.50;;;0.50;;
23206;SDS011;11773;52.570;13.052;2023-07-31T06:08:36;0.60;;;0.60;;
23206;SDS011;11773;52.570;13.052;2023-07-31T06:11:07;0.80;;;0.80;;
23206;SDS011;11773;52.570;13.052;2023-07-31T06:13:36;0.50;;;0.50;;
23206;SDS011;11773;52.570;13.052;2023-07-31T06:16:08;1.07;;;0.67;;
23206;SDS011;11773;52.570;13.052;2023-07-31T06:18:38;0.73;;;0.70;;
23206;SDS011;11773;52.570;13.052;2023-07-31T06:21:07;0.67;;;0.67;;
23206;SDS011;11773;52.570;13.052;2023-07-31T06:23:38;0.60;;;0.60;;
23206;SDS011;11773;52.570;13.052;2023-07-31T06:26:08;0.70;;;0.70;;
23206;SDS011;11773;52.570;13.052;2023-07-31T06:28:37;0.40;;;0.40;;
23206;SDS011;11773;52.570;13.052;2023-07-31T06:31:07;0.47;;;0.43;;
23206;SDS011;11773;52.570;13.052;2023-07-31T06:33:37;0.87;;;0.60;;
23206;SDS011;11773;52.570;13.052;2023-07-31T06:36:07;0.57;;;0.47;;
23206;SDS011;11773;52.570;13.052;2023-07-31T06:38:37;1.13;;;0.80;;
23206;SDS011;11773;52.570;13.052;2023-07-31T06:41:06;0.67;;;0.60;;
23206;SDS011;11773;52.570;13.052;2023-07-31T06:43:37;0.60;;;0.60;;
23206;SDS011;11773;52.570;13.052;2023-07-31T06:46:06;0.50;;;0.50;;
23206;SDS011;11773;52.570;13.052;2023-07-31T06:48:37;0.53;;;0.53;;
23206;SDS011;11773;52.570;13.052;2023-07-31T06:51:07;0.70;;;0.60;;
23206;SDS011;11773;52.570;13.052;2023-07-31T06:53:37;0.63;;;0.60;;
23206;SDS011;11773;52.570;13.052;2023-07-31T06:56:06;0.50;;;0.30;;
23206;SDS011;11773;52.570;13.052;2023-07-31T06:58:36;0.50;;;0.40;;
23206;SDS011;11773;52.570;13.052;2023-07-31T07:01:05;0.63;;;0.63;;
23206;SDS011;11773;52.570;13.052;2023-07-31T07:03:35;0.80;;;0.67;;
23206;SDS011;11773;52.570;13.052;2023-07-31T07:06:05;0.53;;;0.53;;
23206;SDS011;11773;52.570;13.052;2023-07-31T07:08:34;0.60;;;0.60;;
23206;SDS011;11773;52.570;13.052;2023-07-31T07:11:04;0.50;;;0.50;;
23206;SDS011;11773;52.570;13.052;2023-07-31T07:13:33;0.67;;;0.57;;
23206;SDS011;11773;52.570;13.052;2023-07-31T07:16:05;0.40;;;0.40;;
23206;SDS011;11773;52.570;13.052;2023-07-31T07:18:35;0.30;;;0.30;;
23206;SDS011;11773;52.570;13.052;2023-07-31T07:21:06;0.60;;;0.57;;
23206;SDS011;11773;52.570;13.052;2023-07-31T07:23:35;0.47;;;0.47;;
23206;SDS011;11773;52.570;13.052;2023-07-31T07:26:05;0.50;;;0.50;;
23206;SDS011;11773;52.570;13.052;2023-07-31T07:28:35;0.50;;;0.50;;
23206;SDS011;11773;52.570;13.052;2023-07-31T07:31:04;0.37;;;0.37;;
23206;SDS011;11773;52.570;13.052;2023-07-31T07:33:34;0.57;;;0.53;;
23206;SDS011;11773;52.570;13.052;2023-07-31T07:36:03;1.00;;;0.60;;
23206;SDS011;11773;52.570;13.052;2023-07-31T07:38:35;0.93;;;0.80;;
23206;SDS011;11773;52.570;13.052;2023-07-31T07:41:06;1.00;;;0.80;;
23206;SDS011;11773;52.570;13.052;2023-07-31T07:43:35;0.70;;;0.70;;
23206;SDS011;11773;52.570;13.052;2023-07-31T07:46:05;0.53;;;0.53;;
23206;SDS011;11773;52.570;13.052;2023-07-31T07:48:35;0.60;;;0.60;;
23206;SDS011;11773;52.570;13.052;2023-07-31T07:51:04;0.70;;;0.60;;
23206;SDS011;11773;52.570;13.052;2023-07-31T07:53:34;0.97;;;0.60;;
23206;SDS011;11773;52.570;13.052;2023-07-31T07:56:03;0.60;;;0.60;;
23206;SDS011;11773;52.570;13.052;2023-07-31T07:58:33;0.50;;;0.50;;
23206;SDS011;11773;52.570;13.052;2023-07-31T08:01:02;0.67;;;0.67;;
23206;SDS011;11773;52.570;13.052;2023-07-31T08:03:32;0.70;;;0.70;;
23206;SDS011;11773;52.570;13.052;2023-07-31T08:06:02;1.10;;;0.80;;
23206;SDS011;11773;52.570;13.052;2023-07-31T08:08:32;0.50;;;0.50;;
23206;SDS011;11773;52.570;13.052;2023-07-31T08:11:01;0.60;;;0.60;;
23206;SDS011;11773;52.570;13.052;2023-07-31T08:13:31;0.50;;;0.50;;
23206;SDS011;11773;52.570;13.052;2023-07-31T08:16:03;0.40;;;0.40;;
23206;SDS011;11773;52.570;13.052;2023-07-31T08:18:33;0.47;;;0.40;;
23206;SDS011;11773;52.570;13.052;2023-07-31T08:21:02;0.60;;;0.60;;
23206;SDS011;11773;52.570;13.052;2023-07-31T08:23:32;0.40;;;0.40;;
23206;SDS011;11773;52.570;13.052;2023-07-31T08:26:02;1.17;;;0.57;;
23206;SDS011;11773;52.570;13.052;2023-07-31T08:28:31;0.90;;;0.57;;
23206;SDS011;11773;52.570;13.052;2023-07-31T08:31:03;0.57;;;0.57;;
23206;SDS011;11773;52.570;13.052;2023-07-31T08:33:32;0.50;;;0.50;;
23206;SDS011;11773;52.570;13.052;2023-07-31T08:36:02;0.70;;;0.70;;
23206;SDS011;11773;52.570;13.052;2023-07-31T08:38:32;0.60;;;0.60;;
23206;SDS011;11773;52.570;13.052;2023-07-31T08:41:04;0.60;;;0.60;;
23206;SDS011;11773;52.570;13.052;2023-07-31T08:43:34;0.83;;;0.80;;
23206;SDS011;11773;52.570;13.052;2023-07-31T08:46:05;0.50;;;0.50;;
23206;SDS011;11773;52.570;13.052;2023-07-31T08:48:35;0.60;;;0.60;;
23206;SDS011;11773;52.570;13.052;2023-07-31T08:51:06;0.70;;;0.70;;
23206;SDS011;11773;52.570;13.052;2023-07-31T08:53:36;0.73;;;0.50;;
23206;SDS011;11773;52.570;13.052;2023-07-31T08:56:06;0.50;;;0.50;;
23206;SDS011;11773;52.570;13.052;2023-07-31T08:58:37;0.73;;;0.67;;
23206;SDS011;11773;52.570;13.052;2023-07-31T09:01:07;0.80;;;0.80;;
23206;SDS011;11773;52.570;13.052;2023-07-31T09:03:37;0.63;;;0.63;;
23206;SDS011;11773;52.570;13.052;2023-07-31T09:06:10;0.60;;;0.60;;
23206;SDS011;11773;52.570;13.052;2023-07-31T09:08:41;0.40;;;0.40;;
23206;SDS011;11773;52.570;13.052;2023-07-31T09:11:11;0.53;;;0.50;;
23206;SDS011;11773;52.570;13.052;2023-07-31T09:13:42;0.50;;;0.43;;
23206;SDS011;11773;52.570;13.052;2023-07-31T09:16:12;0.40;;;0.40;;
23206;SDS011;11773;52.570;13.052;2023-07-31T09:18:54;0.80;;;0.47;;
23206;SDS011;11773;52.570;13.052;2023-07-31T09:21:25;0.35;;;0.35;;
23206;SDS011;11773;52.570;13.052;2023-07-31T09:23:55;0.30;;;0.30;;
23206;SDS011;11773;52.570;13.052;2023-07-31T09:26:32;0.20;;;0.20;;
23206;SDS011;11773;52.570;13.052;2023-07-31T09:29:06;0.50;;;0.50;;
23206;SDS011;11773;52.570;13.052;2023-07-31T09:31:39;0.40;;;0.40;;
23206;SDS011;11773;52.570;13.052;2023-07-31T09:34:11;0.40;;;0.40;;
23206;SDS011;11773;52.570;13.052;2023-07-31T09:36:49;0.47;;;0.47;;
23206;SDS011;11773;52.570;13.052;2023-07-31T09:39:17;0.63;;;0.40;;
23206;SDS011;11773;52.570;13.052;2023-07-31T09:41:54;0.30;;;0.30;;
23206;SDS011;11773;52.570;13.052;2023-07-31T09:44:37;0.50;;;0.50;;
23206;SDS011;11773;52.570;13.052;2023-07-31T09:47:33;0.30;;;0.30;;
23206;SDS011;11773;52.570;13.052;2023-07-31T09:49:53;0.33;;;0.33;;
23206;SDS011;11773;52.570;13.052;2023-07-31T09:52:22;0.50;;;0.50;;
23206;SDS011;11773;52.570;13.052;2023-07-31T09:54:55;0.30;;;0.30;;
23206;SDS011;11773;52.570;13.052;2023-07-31T09:57:24;0.60;;;0.60;;
23206;SDS011;11773;52.570;13.052;2023-07-31T09:59:55;0.80;;;0.60;;
23206;SDS011;11773;52.570;13.052;2023-07-31T10:02:26;0.57;;;0.57;;
23206;SDS011;11773;52.570;13.052;2023-07-31T10:04:58;0.60;;;0.60;;
23206;SDS011;11773;52.570;13.052;2023-07-31T10:07:31;0.70;;;0.70;;
23206;SDS011;11773;52.570;13.052;2023-07-31T10:10:07;0.60;;;0.60;;
23206;SDS011;11773;52.570;13.052;2023-07-31T10:12:38;0.60;;;0.60;;
23206;SDS011;11773;52.570;13.052;2023-07-31T10:15:08;0.50;;;0.50;;
23206;SDS011;11773;52.570;13.052;2023-07-31T10:17:39;0.73;;;0.60;;
23206;SDS011;11773;52.570;13.052;2023-07-31T10:20:09;0.63;;;0.60;;
23206;SDS011;11773;52.570;13.052;2023-07-31T10:22:40;0.70;;;0.70;;
23206;SDS011;11773;52.570;13.052;2023-07-31T10:25:13;0.50;;;0.50;;
23206;SDS011;11773;52.570;13.052;2023-07-31T10:27:44;0.57;;;0.57;;
23206;SDS011;11773;52.570;13.052;2023-07-31T10:30:17;0.80;;;0.80;;
23206;SDS011;11773;52.570;13.052;2023-07-31T10:32:49;0.57;;;0.57;;
23206;SDS011;11773;52.570;13.052;2023-07-31T10:35:21;0.87;;;0.87;;
23206;SDS011;11773;52.570;13.052;2023-07-31T10:37:51;1.00;;;0.80;;
23206;SDS011;11773;52.570;13.052;2023-07-31T10:40:25;0.90;;;0.90;;
23206;SDS011;11773;52.570;13.052;2023-07-31T10:42:56;1.33;;;1.23;;
23206;SDS011;11773;52.570;13.052;2023-07-31T10:45:30;1.43;;;1.33;;
23206;SDS011;11773;52.570;13.052;2023-07-31T10:48:05;1.17;;;1.07;;
23206;SDS011;11773;52.570;13.052;2023-07-31T10:50:52;1.37;;;1.20;;
23206;SDS011;11773;52.570;13.052;2023-07-31T10:53:29;1.40;;;1.30;;
23206;SDS011;11773;52.570;13.052;2023-07-31T10:56:03;1.00;;;1.00;;
23206;SDS011;11773;52.570;13.052;2023-07-31T10:58:36;1.17;;;1.10;;
23206;SDS011;11773;52.570;13.052;2023-07-31T11:01:06;1.03;;;1.03;;
23206;SDS011;11773;52.570;13.052;2023-07-31T11:03:42;1.37;;;1.27;;
23206;SDS011;11773;52.570;13.052;2023-07-31T11:06:19;0.97;;;0.90;;
23206;SDS011;11773;52.570;13.052;2023-07-31T11:08:50;1.20;;;1.10;;
23206;SDS011;11773;52.570;13.052;2023-07-31T11:11:20;1.07;;;1.03;;
23206;SDS011;11773;52.570;13.052;2023-07-31T11:13:50;1.33;;;1.23;;
23206;SDS011;11773;52.570;13.052;2023-07-31T11:16:22;1.30;;;1.20;;
23206;SDS011;11773;52.570;13.052;2023-07-31T11:18:53;2.33;;;2.10;;
23206;SDS011;11773;52.570;13.052;2023-07-31T11:21:24;2.40;;;2.20;;
23206;SDS011;11773;52.570;13.052;2023-07-31T11:23:59;1.83;;;1.73;;
23206;SDS011;11773;52.570;13.052;2023-07-31T11:26:26;2.23;;;2.00;;
23206;SDS011;11773;52.570;13.052;2023-07-31T11:28:58;2.17;;;1.97;;
23206;SDS011;11773;52.570;13.052;2023-07-31T11:31:27;2.00;;;1.90;;
23206;SDS011;11773;52.570;13.052;2023-07-31T11:34:06;1.60;;;1.50;;
23206;SDS011;11773;52.570;13.052;2023-07-31T11:36:35;1.70;;;1.60;;
23206;SDS011;11773;52.570;13.052;2023-07-31T11:39:09;1.47;;;1.37;;
23206;SDS011;11773;52.570;13.052;2023-07-31T11:41:42;1.67;;;1.57;;
23206;SDS011;11773;52.570;13.052;2023-07-31T11:44:11;2.57;;;2.17;;
23206;SDS011;11773;52.570;13.052;2023-07-31T11:46:42;1.20;;;1.20;;
23206;SDS011;11773;52.570;13.052;2023-07-31T11:49:12;1.47;;;1.37;;
23206;SDS011;11773;52.570;13.052;2023-07-31T11:51:42;1.60;;;1.50;;
23206;SDS011;11773;52.570;13.052;2023-07-31T11:54:12;1.20;;;1.10;;
23206;SDS011;11773;52.570;13.052;2023-07-31T11:56:42;1.73;;;1.40;;
23206;SDS011;11773;52.570;13.052;2023-07-31T11:59:13;1.30;;;1.20;;
23206;SDS011;11773;52.570;13.052;2023-07-31T12:01:43;1.67;;;1.30;;
23206;SDS011;11773;52.570;13.052;2023-07-31T12:04:13;1.47;;;1.37;;
23206;SDS011;11773;52.570;13.052;2023-07-31T12:06:43;1.53;;;1.43;;
23206;SDS011;11773;52.570;13.052;2023-07-31T12:09:15;1.90;;;1.30;;
23206;SDS011;11773;52.570;13.052;2023-07-31T12:11:45;2.00;;;1.20;;
23206;SDS011;11773;52.570;13.052;2023-07-31T12:14:20;1.30;;;1.20;;
23206;SDS011;11773;52.570;13.052;2023-07-31T12:16:57;1.33;;;1.23;;
23206;SDS011;11773;52.570;13.052;2023-07-31T12:19:29;1.23;;;1.20;;
23206;SDS011;11773;52.570;13.052;2023-07-31T12:22:00;1.10;;;1.00;;
23206;SDS011;11773;52.570;13.052;2023-07-31T12:24:29;1.00;;;0.90;;
23206;SDS011;11773;52.570;13.052;2023-07-31T12:27:07;1.00;;;1.00;;
23206;SDS011;11773;52.570;13.052;2023-07-31T12:29:41;1.00;;;0.90;;
23206;SDS011;11773;52.570;13.052;2023-07-31T12:32:18;1.47;;;1.37;;
23206;SDS011;11773;52.570;13.052;2023-07-31T12:35:08;1.00;;;1.00;;
23206;SDS011;11773;52.570;13.052;2023-07-31T12:37:37;0.90;;;0.90;;
23206;SDS011;11773;52.570;13.052;2023-07-31T12:40:07;0.80;;;0.80;;
23206;SDS011;11773;52.570;13.052;2023-07-31T12:42:38;0.80;;;0.80;;
23206;SDS011;11773;52.570;13.052;2023-07-31T12:45:09;0.87;;;0.87;;
23206;SDS011;11773;52.570;13.052;2023-07-31T12:47:38;0.97;;;0.93;;
23206;SDS011;11773;52.570;13.052;2023-07-31T12:50:08;1.40;;;1.30;;
23206;SDS011;11773;52.570;13.052;2023-07-31T12:52:37;1.00;;;1.00;;
23206;SDS011;11773;52.570;13.052;2023-07-31T12:55:07;1.30;;;1.20;;
23206;SDS011;11773;52.570;13.052;2023-07-31T12:57:39;1.40;;;1.30;;
23206;SDS011;11773;52.570;13.052;2023-07-31T13:00:09;0.90;;;0.90;;
23206;SDS011;11773;52.570;13.052;2023-07-31T13:02:40;0.90;;;0.90;;
23206;SDS011;11773;52.570;13.052;2023-07-31T13:05:09;0.60;;;0.60;;
23206;SDS011;11773;52.570;13.052;2023-07-31T13:07:40;0.80;;;0.80;;
23206;SDS011;11773;52.570;13.052;2023-07-31T13:10:10;0.77;;;0.77;;
23206;SDS011;11773;52.570;13.052;2023-07-31T13:12:39;1.10;;;1.00;;
23206;SDS011;11773;52.570;13.052;2023-07-31T13:15:09;0.67;;;0.67;;
23206;SDS011;11773;52.570;13.052;2023-07-31T13:17:39;0.90;;;0.90;;
23206;SDS011;11773;52.570;13.052;2023-07-31T13:20:09;0.87;;;0.83;;
23206;SDS011;11773;52.570;13.052;2023-07-31T13:22:40;1.13;;;1.03;;
23206;SDS011;11773;52.570;13.052;2023-07-31T13:25:11;1.27;;;1.17;;
23206;SDS011;11773;52.570;13.052;2023-07-31T13:27:40;1.33;;;1.00;;
23206;SDS011;11773;52.570;13.052;2023-07-31T13:30:10;0.80;;;0.80;;
23206;SDS011;11773;52.570;13.052;2023-07-31T13:32:39;0.80;;;0.80;;
23206;SDS011;11773;52.570;13.052;2023-07-31T13:35:09;1.13;;;1.03;;
23206;SDS011;11773;52.570;13.052;2023-07-31T13:37:39;1.33;;;1.17;;
23206;SDS011;11773;52.570;13.052;2023-07-31T13:40:09;0.73;;;0.73;;
23206;SDS011;11773;52.570;13.052;2023-07-31T13:42:38;0.60;;;0.60;;
23206;SDS011;11773;52.570;13.052;2023-07-31T13:45:08;0.70;;;0.70;;
23206;SDS011;11773;52.570;13.052;2023-07-31T13:47:38;0.67;;;0.67;;
23206;SDS011;11773;52.570;13.052;2023-07-31T13:50:07;0.80;;;0.80;;
23206;SDS011;11773;52.570;13.052;2023-07-31T13:52:37;1.03;;;0.93;;
23206;SDS011;11773;52.570;13.052;2023-07-31T13:55:07;0.80;;;0.80;;
23206;SDS011;11773;52.570;13.052;2023-07-31T13:57:37;0.80;;;0.80;;
23206;SDS011;11773;52.570;13.052;2023-07-31T14:00:07;0.90;;;0.90;;
23206;SDS011;11773;52.570;13.052;2023-07-31T14:02:37;1.13;;;1.03;;
23206;SDS011;11773;52.570;13.052;2023-07-31T14:05:07;1.20;;;1.00;;
23206;SDS011;11773;52.570;13.052;2023-07-31T14:07:37;0.70;;;0.70;;
23206;SDS011;11773;52.570;13.052;2023-07-31T14:10:07;0.87;;;0.87;;
23206;SDS011;11773;52.570;13.052;2023-07-31T14:12:37;0.70;;;0.70;;
23206;SDS011;11773;52.570;13.052;2023-07-31T14:15:08;1.10;;;1.00;;
23206;SDS011;11773;52.570;13.052;2023-07-31T14:17:38;1.20;;;1.10;;
23206;SDS011;11773;52.570;13.052;2023-07-31T14:20:09;0.87;;;0.87;;
23206;SDS011;11773;52.570;13.052;2023-07-31T14:22:40;1.17;;;1.00;;
23206;SDS011;11773;52.570;13.052;2023-07-31T14:25:10;0.70;;;0.70;;
23206;SDS011;11773;52.570;13.052;2023-07-31T14:27:40;0.70;;;0.70;;
23206;SDS011;11773;52.570;13.052;2023-07-31T14:30:09;0.97;;;0.97;;
23206;SDS011;11773;52.570;13.052;2023-07-31T14:32:39;1.00;;;0.70;;
23206;SDS011;11773;52.570;13.052;2023-07-31T14:35:09;0.80;;;0.80;;
23206;SDS011;11773;52.570;13.052;2023-07-31T14:37:39;1.07;;;0.90;;
23206;SDS011;11773;52.570;13.052;2023-07-31T14:40:11;1.37;;;1.20;;
23206;SDS011;11773;52.570;13.052;2023-07-31T14:42:41;1.00;;;0.90;;
23206;SDS011;11773;52.570;13.052;2023-07-31T14:45:11;1.30;;;1.20;;
23206;SDS011;11773;52.570;13.052;2023-07-31T14:47:40;1.13;;;1.03;;
23206;SDS011;11773;52.570;13.052;2023-07-31T14:50:10;1.20;;;1.10;;
23206;SDS011;11773;52.570;13.052;2023-07-31T14:52:39;2.43;;;1.20;;
23206;SDS011;11773;52.570;13.052;2023-07-31T14:55:09;1.40;;;1.30;;
23206;SDS011;11773;52.570;13.052;2023-07-31T14:57:39;1.27;;;1.17;;
23206;SDS011;11773;52.570;13.052;2023-07-31T15:00:08;1.20;;;1.13;;
23206;SDS011;11773;52.570;13.052;2023-07-31T15:02:38;1.30;;;1.20;;